Time;durP1;ratioP1;P1;durP2;ratioP2;P2;SDS_P1;SDS_P2;PMS_P1;PMS_P2;Temp;Humidity;BMP_temperature;BMP_pressure;BME280_temperature;BME280_humidity;BME280_pressure;Samples;Min_cycle;Max_cycle;Signal;HPM_P1;HPM_P2
2023/06/30 00:00:12;;;;;;;8.90;7.03;;;;;;;26.01;44.47;97044.19;5089945;28;20435;-69
2023/06/30 00:02:41;;;;;;;7.13;6.00;;;;;;;25.99;44.91;97040.97;5086742;28;20431;-67
2023/06/30 00:05:07;;;;;;;7.67;5.90;;;;;;;25.99;44.91;97038.28;5090249;28;20504;-69
2023/06/30 00:07:32;;;;;;;12.93;10.90;;;;;;;25.96;44.56;97036.13;5097451;28;20966;-69
2023/06/30 00:09:58;;;;;;;13.73;9.93;;;;;;;25.93;44.85;97032.06;5089637;28;20666;-69
2023/06/30 00:12:23;;;;;;;13.63;12.23;;;;;;;25.93;44.87;97029.38;5089374;28;20272;-68
2023/06/30 00:14:48;;;;;;;8.33;5.33;;;;;;;25.88;45.17;97026.66;5093654;28;20321;-69
2023/06/30 00:17:14;;;;;;;13.33;6.27;;;;;;;25.87;45.02;97028.53;5084675;28;20238;-69
2023/06/30 00:19:39;;;;;;;18.00;14.30;;;;;;;25.87;45.26;97028.53;5098232;28;20280;-68
2023/06/30 00:22:05;;;;;;;12.33;11.00;;;;;;;25.86;45.28;97015.38;5098150;28;20216;-68
2023/06/30 00:24:30;;;;;;;8.13;6.50;;;;;;;25.85;45.15;97011.84;5089455;28;20194;-68
2023/06/30 00:26:56;;;;;;;13.97;10.63;;;;;;;25.84;45.12;97012.94;5089021;28;20216;-68
2023/06/30 00:29:21;;;;;;;8.80;7.43;;;;;;;25.83;45.44;97005.13;5054050;28;20296;-68
2023/06/30 00:31:46;;;;;;;6.27;5.63;;;;;;;25.79;45.43;96999.47;5089224;28;20273;-68
2023/06/30 00:34:12;;;;;;;9.00;4.60;;;;;;;25.78;45.33;97000.53;5089625;28;20265;-69
2023/06/30 00:36:37;;;;;;;6.03;5.37;;;;;;;25.76;45.49;96987.41;5091848;28;20209;-66
2023/06/30 00:39:03;;;;;;;14.13;9.17;;;;;;;25.77;45.56;96990.88;5093173;28;20213;-69
2023/06/30 00:41:29;;;;;;;8.03;6.77;;;;;;;25.77;45.04;96985.50;5076684;28;20654;-69
2023/06/30 00:43:55;;;;;;;7.77;6.80;;;;;;;25.76;45.15;96989.25;5092664;28;20441;-69
2023/06/30 00:46:21;;;;;;;12.00;8.53;;;;;;;25.76;45.27;96986.56;5088476;28;20204;-68
2023/06/30 00:48:47;;;;;;;11.30;6.53;;;;;;;25.76;45.07;96981.19;5064674;28;20817;-68
2023/06/30 00:51:13;;;;;;;20.30;12.47;;;;;;;25.73;45.50;96974.47;5090642;28;20189;-69
2023/06/30 00:53:38;;;;;;;13.93;12.43;;;;;;;25.72;45.30;96966.66;5088924;28;20186;-68
2023/06/30 00:56:04;;;;;;;7.73;6.10;;;;;;;25.70;45.51;96963.47;5071005;28;20205;-69
2023/06/30 00:58:29;;;;;;;15.53;12.83;;;;;;;25.67;45.38;96969.31;5088607;28;20209;-69
2023/06/30 01:00:59;;;;;;;21.70;19.30;;;;;;;25.63;45.46;96965.53;5088836;28;20198;-69
2023/06/30 01:03:33;;;;;;;18.27;14.43;;;;;;;25.61;45.56;96960.44;5088690;28;20196;-69
2023/06/30 01:06:08;;;;;;;19.47;15.83;;;;;;;25.63;45.80;96965.53;5079365;28;20420;-68
2023/06/30 01:08:41;;;;;;;8.93;6.30;;;;;;;25.57;45.57;96967.34;5090696;28;20454;-69
2023/06/30 01:11:08;;;;;;;6.93;5.23;;;;;;;25.52;45.66;96957.41;5092001;28;20965;-68
2023/06/30 01:13:34;;;;;;;13.83;12.40;;;;;;;25.45;46.14;96956.81;5088146;28;20791;-69
2023/06/30 01:15:59;;;;;;;12.97;10.10;;;;;;;25.36;46.42;96952.91;5098069;28;20459;-70
2023/06/30 01:18:25;;;;;;;9.00;6.50;;;;;;;25.32;46.63;96955.31;5089768;28;20209;-67
2023/06/30 01:20:51;;;;;;;11.97;9.90;;;;;;;25.31;46.32;96956.38;5073878;28;20186;-68
2023/06/30 01:23:24;;;;;;;10.60;8.30;;;;;;;25.30;46.54;96952.06;5088246;28;20798;-69
2023/06/30 01:25:50;;;;;;;12.43;11.27;;;;;;;25.28;46.13;96960.38;5095003;28;20194;-68
2023/06/30 01:28:16;;;;;;;8.13;5.33;;;;;;;25.24;46.16;96953.09;5070115;28;21218;-69
2023/06/30 01:30:41;;;;;;;6.80;5.70;;;;;;;25.18;46.45;96954.91;5087597;28;20614;-68
2023/06/30 01:33:07;;;;;;;14.73;11.90;;;;;;;25.19;46.64;96951.16;5069591;28;20182;-69
2023/06/30 01:35:32;;;;;;;8.83;7.80;;;;;;;25.20;47.08;96955.47;5087716;28;20210;-69
2023/06/30 01:38:01;;;;;;;12.67;11.37;;;;;;;25.20;46.85;96950.13;5088961;28;20224;-68
2023/06/30 01:40:27;;;;;;;6.93;6.23;;;;;;;25.18;47.06;96946.03;5084908;28;20439;-68
2023/06/30 01:42:55;;;;;;;13.60;8.33;;;;;;;25.17;46.70;96947.09;5075634;28;20454;-67
2023/06/30 01:45:20;;;;;;;7.63;6.67;;;;;;;25.13;46.77;96944.94;5069609;28;20242;-68
2023/06/30 01:47:46;;;;;;;13.10;11.70;;;;;;;25.10;46.62;96936.56;5087468;28;20451;-67
2023/06/30 01:50:12;;;;;;;12.70;10.27;;;;;;;25.09;46.28;96937.63;5089169;28;20219;-67
2023/06/30 01:52:38;;;;;;;21.87;15.00;;;;;;;25.08;46.60;96936.03;5052714;28;20194;-66
2023/06/30 01:55:03;;;;;;;9.93;7.90;;;;;;;25.04;46.58;96935.72;5087954;28;20502;-67
2023/06/30 01:57:29;;;;;;;6.60;5.70;;;;;;;25.00;46.38;96935.41;5086954;28;20213;-68
2023/06/30 01:59:54;;;;;;;7.10;5.43;;;;;;;24.95;47.11;96926.53;5087993;28;20276;-68
2023/06/30 02:02:20;;;;;;;7.57;6.77;;;;;;;24.96;47.39;96920.91;5087503;28;20197;-68
2023/06/30 02:04:46;;;;;;;21.60;17.30;;;;;;;24.95;47.18;96927.31;5094046;28;20182;-67
2023/06/30 02:07:11;;;;;;;7.63;6.90;;;;;;;24.94;47.36;96928.41;5091233;28;20510;-67
2023/06/30 02:09:37;;;;;;;10.47;6.40;;;;;;;24.87;47.29;96927.78;5091678;28;20197;-67
2023/06/30 02:12:02;;;;;;;7.17;6.37;;;;;;;24.84;47.32;96926.41;5092575;28;20269;-67
2023/06/30 02:14:28;;;;;;;6.90;5.60;;;;;;;24.79;47.30;96922.88;5073235;28;20208;-66
2023/06/30 02:16:53;;;;;;;15.80;13.00;;;;;;;24.78;47.53;96926.59;5096496;28;20223;-67
2023/06/30 02:19:23;;;;;;;14.30;12.50;;;;;;;24.74;47.58;96931.66;5091642;28;20244;-67
2023/06/30 02:21:50;;;;;;;16.00;12.90;;;;;;;24.72;47.92;96931.09;5092075;28;20622;-66
2023/06/30 02:24:16;;;;;;;14.73;12.07;;;;;;;24.69;47.60;96937.78;5091952;28;20435;-67
2023/06/30 02:26:41;;;;;;;14.47;12.73;;;;;;;24.69;47.89;96937.78;5093979;28;20418;-67
2023/06/30 02:29:07;;;;;;;10.60;7.57;;;;;;;24.68;47.54;96933.44;5095164;28;20695;-66
2023/06/30 02:31:32;;;;;;;9.20;5.97;;;;;;;24.60;47.91;96933.88;5091342;28;20294;-68
2023/06/30 02:33:57;;;;;;;10.83;7.57;;;;;;;24.64;47.70;96932.31;5091440;28;20203;-67
2023/06/30 02:36:23;;;;;;;14.40;10.70;;;;;;;24.67;47.84;96937.19;5090815;28;20213;-67
2023/06/30 02:38:48;;;;;;;16.13;11.17;;;;;;;24.73;47.80;96945.28;5096581;28;20243;-68
2023/06/30 02:41:14;;;;;;;11.50;10.30;;;;;;;24.78;47.52;96937.31;5096506;28;20209;-68
2023/06/30 02:43:39;;;;;;;14.50;11.37;;;;;;;24.83;47.32;96943.56;5093620;28;20216;-68
2023/06/30 02:46:05;;;;;;;11.83;8.77;;;;;;;24.89;46.90;96949.78;5096712;28;20210;-68
2023/06/30 02:48:30;;;;;;;6.80;5.80;;;;;;;24.87;46.64;96946.53;5073616;28;20716;-69
2023/06/30 02:50:55;;;;;;;12.60;10.30;;;;;;;24.85;46.96;96937.94;5098564;28;20258;-68
2023/06/30 02:53:21;;;;;;;10.73;9.73;;;;;;;24.81;47.14;96942.19;5099979;28;20186;-68
2023/06/30 02:55:46;;;;;;;10.10;7.93;;;;;;;24.81;46.69;96944.88;5094307;28;20284;-67
2023/06/30 02:58:12;;;;;;;7.80;5.17;;;;;;;24.71;46.99;96942.03;5094063;28;20214;-69
2023/06/30 03:00:39;;;;;;;12.67;11.33;;;;;;;24.74;46.97;96936.19;5100841;28;20243;-68
2023/06/30 03:03:05;;;;;;;6.90;6.20;;;;;;;24.76;46.77;96940.22;5090883;28;20193;-70
2023/06/30 03:05:30;;;;;;;9.60;8.13;;;;;;;24.75;47.00;96945.84;5090802;28;20936;-68
2023/06/30 03:07:56;;;;;;;6.60;5.30;;;;;;;24.72;47.16;96928.41;5092685;28;20725;-69
2023/06/30 03:10:21;;;;;;;7.23;5.67;;;;;;;24.64;47.17;96926.13;5091796;28;20188;-68
2023/06/30 03:12:47;;;;;;;9.13;7.97;;;;;;;24.63;47.48;96936.06;5091416;28;20674;-68
2023/06/30 03:15:12;;;;;;;12.10;10.67;;;;;;;24.60;47.96;96915.09;5093966;28;20610;-68
2023/06/30 03:17:37;;;;;;;11.50;9.40;;;;;;;24.60;47.81;96912.44;5082402;28;20256;-68
2023/06/30 03:20:12;;;;;;;11.63;8.83;;;;;;;24.61;47.80;96908.69;5094922;28;20237;-68
2023/06/30 03:22:38;;;;;;;7.70;6.93;;;;;;;24.58;47.81;96901.16;5089833;28;20590;-69
2023/06/30 03:25:05;;;;;;;8.93;7.37;;;;;;;24.55;47.39;96904.34;5077849;28;20939;-69
2023/06/30 03:27:31;;;;;;;20.73;11.10;;;;;;;24.52;47.73;96904.84;5086895;28;20457;-68
2023/06/30 03:29:56;;;;;;;10.97;7.33;;;;;;;24.50;47.81;96904.28;5097972;28;20436;-69
2023/06/30 03:32:22;;;;;;;17.40;8.47;;;;;;;24.49;47.60;96908.84;5098708;28;20247;-68
2023/06/30 03:34:47;;;;;;;8.80;7.00;;;;;;;24.46;47.79;96906.66;5099369;28;20635;-68
2023/06/30 03:37:13;;;;;;;7.20;6.40;;;;;;;24.46;47.82;96906.66;5091597;28;20209;-68
2023/06/30 03:39:39;;;;;;;8.50;6.70;;;;;;;24.46;48.04;96897.78;5097747;28;20192;-68
2023/06/30 03:42:05;;;;;;;12.40;6.40;;;;;;;24.45;48.18;96901.53;5092505;28;20214;-69
2023/06/30 03:44:30;;;;;;;5.87;5.27;;;;;;;24.38;48.44;96912.47;5099648;28;20438;-68
2023/06/30 03:46:56;;;;;;;9.40;6.10;;;;;;;24.35;48.41;96912.94;5097167;28;20192;-69
2023/06/30 03:49:21;;;;;;;8.03;7.10;;;;;;;24.35;48.47;96907.59;5089945;28;20338;-69
2023/06/30 03:51:47;;;;;;;9.73;8.73;;;;;;;24.34;48.82;96917.47;5094733;28;20780;-68
2023/06/30 03:54:12;;;;;;;10.90;9.60;;;;;;;24.37;48.72;96922.34;5089481;28;20359;-68
2023/06/30 03:56:38;;;;;;;12.87;8.73;;;;;;;24.39;48.76;96914.03;5088542;28;20206;-69
2023/06/30 03:59:03;;;;;;;10.10;5.53;;;;;;;24.43;48.49;96915.19;5093728;28;20220;-68
2023/06/30 04:01:28;;;;;;;7.40;5.10;;;;;;;24.43;48.45;96919.75;5089163;28;20779;-68
2023/06/30 04:03:54;;;;;;;7.60;6.90;;;;;;;24.42;48.47;96918.13;5089686;28;20662;-70
2023/06/30 04:06:19;;;;;;;14.03;9.00;;;;;;;24.47;48.33;96918.16;5072763;28;20190;-68
2023/06/30 04:08:45;;;;;;;8.43;5.53;;;;;;;24.47;48.28;96920.84;5099636;28;20235;-69
2023/06/30 04:11:11;;;;;;;12.93;10.03;;;;;;;24.47;48.64;96910.97;5095281;28;20254;-68
2023/06/30 04:13:36;;;;;;;16.10;12.90;;;;;;;24.51;48.65;96912.06;5089176;28;20424;-69
2023/06/30 04:16:03;;;;;;;8.83;5.83;;;;;;;24.53;48.59;96919.84;5089270;28;20288;-67
2023/06/30 04:18:28;;;;;;;8.47;5.20;;;;;;;24.54;48.36;96929.53;5088341;28;20220;-68
2023/06/30 04:20:53;;;;;;;10.63;6.30;;;;;;;24.57;48.40;96918.31;5092359;28;20875;-69
2023/06/30 04:23:19;;;;;;;8.60;7.70;;;;;;;24.59;48.67;96921.53;5101457;28;20192;-68
2023/06/30 04:25:44;;;;;;;13.27;10.20;;;;;;;24.60;48.46;96915.09;5088836;28;20213;-67
2023/06/30 04:28:10;;;;;;;10.73;8.33;;;;;;;24.64;48.40;96921.59;5090495;28;20242;-68
2023/06/30 04:30:35;;;;;;;9.33;7.70;;;;;;;24.68;48.56;96928.09;5097061;28;20280;-68
2023/06/30 04:33:00;;;;;;;10.63;9.53;;;;;;;24.72;48.38;96919.56;5094051;28;20318;-67
2023/06/30 04:35:26;;;;;;;10.00;8.07;;;;;;;24.74;48.09;96920.94;5092663;28;20300;-68
2023/06/30 04:37:52;;;;;;;11.30;8.57;;;;;;;24.79;47.97;96922.88;5096070;28;20252;-66
2023/06/30 04:40:17;;;;;;;9.83;7.13;;;;;;;24.84;47.62;96922.91;5089800;28;20185;-67
2023/06/30 04:42:43;;;;;;;17.53;6.67;;;;;;;24.83;48.01;96918.59;5088073;28;20296;-67
2023/06/30 04:45:08;;;;;;;8.63;7.73;;;;;;;24.83;48.03;96918.59;5095765;28;20311;-68
2023/06/30 04:47:34;;;;;;;12.10;8.60;;;;;;;24.83;47.75;96918.59;5088203;28;20205;-68
2023/06/30 04:49:59;;;;;;;8.40;5.73;;;;;;;24.82;47.08;96917.03;5089640;28;20189;-67
2023/06/30 04:52:25;;;;;;;10.10;6.30;;;;;;;24.84;47.02;96922.91;5096786;28;20705;-68
2023/06/30 04:54:50;;;;;;;6.43;5.70;;;;;;;24.88;46.90;96920.56;5087963;28;20209;-68
2023/06/30 04:57:15;;;;;;;10.00;6.17;;;;;;;24.91;46.79;96920.84;5076625;28;20189;-68
2023/06/30 04:59:41;;;;;;;6.87;6.13;;;;;;;24.92;46.23;96922.47;5089983;28;20694;-67
2023/06/30 05:02:06;;;;;;;8.70;5.33;;;;;;;24.90;45.91;96915.72;5088470;28;20269;-70
2023/06/30 05:04:32;;;;;;;6.80;5.97;;;;;;;24.90;46.46;96923.78;5091950;28;20185;-69
2023/06/30 05:06:57;;;;;;;7.30;6.10;;;;;;;24.94;46.58;96920.38;5087922;28;20352;-68
2023/06/30 05:09:23;;;;;;;6.07;5.47;;;;;;;24.94;47.35;96924.91;5087594;28;20216;-68
2023/06/30 05:11:48;;;;;;;7.03;5.90;;;;;;;24.90;48.14;96929.97;5091104;28;20193;-69
2023/06/30 05:14:14;;;;;;;6.70;5.67;;;;;;;24.83;48.37;96929.31;5097982;28;20180;-69
2023/06/30 05:16:39;;;;;;;7.80;5.37;;;;;;;24.77;49.59;96930.34;5083958;28;20545;-70
2023/06/30 05:19:05;;;;;;;9.17;6.03;;;;;;;24.76;50.65;96937.56;5087777;28;20719;-69
2023/06/30 05:21:30;;;;;;;10.53;6.07;;;;;;;24.59;52.21;96942.16;5088042;28;20736;-68
2023/06/30 05:23:56;;;;;;;11.20;6.90;;;;;;;24.59;52.78;96945.63;5087348;28;20224;-68
2023/06/30 05:26:21;;;;;;;11.80;7.37;;;;;;;24.47;53.46;96939.59;5087454;28;20272;-68
2023/06/30 05:28:47;;;;;;;12.77;6.70;;;;;;;24.43;54.25;96951.88;5086906;28;20304;-69
2023/06/30 05:31:12;;;;;;;14.43;7.10;;;;;;;24.46;54.41;96946.00;5094277;28;20198;-68
2023/06/30 05:33:37;;;;;;;14.17;6.90;;;;;;;24.34;54.90;96951.47;5080999;28;20194;-68
2023/06/30 05:36:03;;;;;;;14.83;6.70;;;;;;;24.30;55.48;96953.03;5087922;28;20288;-68
2023/06/30 05:38:29;;;;;;;11.00;7.73;;;;;;;24.31;55.68;96950.13;5086922;28;20206;-69
2023/06/30 05:40:55;;;;;;;11.30;7.60;;;;;;;24.31;56.20;96947.44;5065112;28;20803;-68
2023/06/30 05:43:20;;;;;;;11.97;7.20;;;;;;;24.27;55.74;96956.19;5092615;28;20219;-69
2023/06/30 05:45:46;;;;;;;13.57;7.60;;;;;;;24.27;56.13;96964.22;5096353;28;20983;-68
2023/06/30 05:48:11;;;;;;;16.23;8.80;;;;;;;24.31;56.51;96966.19;5069468;28;20724;-69
2023/06/30 05:50:37;;;;;;;13.80;7.80;;;;;;;24.33;56.38;96980.13;5069996;28;20212;-71
2023/06/30 05:53:03;;;;;;;10.83;7.57;;;;;;;24.35;56.10;96978.00;5087904;28;20189;-70
2023/06/30 05:55:28;;;;;;;13.40;8.40;;;;;;;24.39;55.82;96981.00;5076651;28;20257;-69
2023/06/30 05:57:54;;;;;;;26.17;8.30;;;;;;;24.38;56.22;96988.22;5087513;28;20459;-68
2023/06/30 06:00:19;;;;;;;31.87;10.40;;;;;;;24.31;57.28;96986.78;5087670;28;20209;-69
2023/06/30 06:02:45;;;;;;;12.43;8.37;;;;;;;24.24;57.87;96989.63;5090656;28;20193;-68
2023/06/30 06:05:10;;;;;;;18.50;8.90;;;;;;;24.17;58.22;96984.44;5088977;28;20209;-70
2023/06/30 06:07:37;;;;;;;13.60;9.13;;;;;;;24.04;58.33;96982.94;5095487;28;20212;-70
2023/06/30 06:10:02;;;;;;;10.87;8.60;;;;;;;23.95;59.50;96987.03;5088638;28;20193;-70
2023/06/30 06:12:28;;;;;;;13.63;8.97;;;;;;;23.83;59.98;96986.28;5087876;28;20783;-70
2023/06/30 06:14:53;;;;;;;13.23;9.60;;;;;;;23.80;60.28;96986.78;5092543;28;20222;-69
2023/06/30 06:17:19;;;;;;;16.70;8.50;;;;;;;23.76;60.18;96981.09;5079041;28;20193;-69
2023/06/30 06:19:44;;;;;;;12.80;8.40;;;;;;;23.72;60.03;96978.09;5086013;28;20280;-70
2023/06/30 06:22:10;;;;;;;12.00;7.73;;;;;;;23.71;60.09;96981.81;5086441;28;20190;-70
2023/06/30 06:24:35;;;;;;;11.80;7.60;;;;;;;23.70;60.42;96980.19;5069767;28;20718;-68
2023/06/30 06:27:00;;;;;;;10.03;7.17;;;;;;;23.75;60.23;96985.66;5086756;28;20237;-69
2023/06/30 06:29:26;;;;;;;10.70;7.57;;;;;;;23.82;59.78;96987.38;5087253;28;20262;-70
2023/06/30 06:31:52;;;;;;;16.00;7.47;;;;;;;23.82;58.87;96987.38;5087102;28;20263;-68
2023/06/30 06:34:18;;;;;;;9.97;7.40;;;;;;;23.89;59.45;96990.69;5091115;28;20654;-69
2023/06/30 06:36:44;;;;;;;8.13;7.30;;;;;;;24.00;59.46;96992.50;5093473;28;20485;-68
2023/06/30 06:39:10;;;;;;;17.10;8.20;;;;;;;24.02;59.08;96994.91;5087222;28;20523;-70
2023/06/30 06:41:36;;;;;;;14.43;8.77;;;;;;;24.01;59.75;96982.59;5087280;28;20420;-69
2023/06/30 06:44:01;;;;;;;14.13;8.27;;;;;;;24.08;60.04;96994.75;5065651;28;20463;-68
2023/06/30 06:46:27;;;;;;;14.83;9.43;;;;;;;24.13;60.04;96996.69;5093874;28;20189;-68
2023/06/30 06:48:54;;;;;;;15.60;8.60;;;;;;;24.20;59.16;96992.00;5080085;28;20623;-68
2023/06/30 06:51:20;;;;;;;11.60;9.63;;;;;;;24.21;59.19;96998.97;5091953;28;20871;-69
2023/06/30 06:53:45;;;;;;;13.97;8.57;;;;;;;24.21;58.91;96992.78;5090582;28;20489;-68
2023/06/30 06:56:11;;;;;;;18.33;8.57;;;;;;;24.27;58.95;97005.22;5090076;28;20213;-68
2023/06/30 06:58:37;;;;;;;12.90;8.37;;;;;;;24.31;58.37;97009.03;5090132;28;20217;-70
2023/06/30 07:01:03;;;;;;;16.27;8.47;;;;;;;24.35;58.28;96998.63;5090809;28;20251;-68
2023/06/30 07:03:29;;;;;;;15.50;8.30;;;;;;;24.35;58.35;97004.78;5090897;28;20957;-69
2023/06/30 07:05:56;;;;;;;16.37;7.77;;;;;;;24.38;58.65;96998.94;5075208;28;20190;-69
2023/06/30 07:08:21;;;;;;;14.50;9.00;;;;;;;24.42;58.21;97003.81;5097763;28;20213;-71
2023/06/30 07:10:47;;;;;;;16.20;9.20;;;;;;;24.35;58.94;96999.41;5090235;28;21046;-70
2023/06/30 07:13:15;;;;;;;15.40;9.60;;;;;;;24.25;59.80;96998.47;5091068;28;20193;-69
2023/06/30 07:15:40;;;;;;;11.70;9.67;;;;;;;24.24;60.20;97011.03;5089929;28;20467;-70
2023/06/30 07:18:05;;;;;;;14.63;9.20;;;;;;;24.24;60.50;97003.00;5094487;28;20444;-70
2023/06/30 07:20:31;;;;;;;12.47;9.47;;;;;;;24.22;61.06;97005.13;5090180;28;20193;-68
2023/06/30 07:22:57;;;;;;;16.67;11.00;;;;;;;24.20;61.08;97013.41;5088577;28;20217;-69
2023/06/30 07:25:24;;;;;;;15.00;10.90;;;;;;;24.17;61.71;97018.44;5095604;28;20189;-68
2023/06/30 07:27:54;;;;;;;10.20;8.43;;;;;;;24.11;61.80;97020.22;5091022;28;20251;-70
2023/06/30 07:30:28;;;;;;;12.30;9.10;;;;;;;24.03;61.44;97024.13;5089755;28;20458;-68
2023/06/30 07:32:54;;;;;;;13.50;9.43;;;;;;;24.00;60.86;97024.59;5089403;28;20423;-69
2023/06/30 07:35:21;;;;;;;18.73;10.87;;;;;;;24.01;61.45;97036.09;5072616;28;20980;-71
2023/06/30 07:37:47;;;;;;;12.17;10.20;;;;;;;23.93;61.69;97035.44;5089527;28;20459;-70
2023/06/30 07:40:13;;;;;;;17.40;10.57;;;;;;;23.91;61.74;97036.75;5093728;28;21001;-69
2023/06/30 07:42:39;;;;;;;14.50;10.83;;;;;;;23.87;61.40;97033.75;5095940;28;20858;-70
2023/06/30 07:45:09;;;;;;;14.90;11.30;;;;;;;23.81;61.11;97033.91;5071789;28;20420;-70
2023/06/30 07:47:35;;;;;;;15.23;11.37;;;;;;;23.72;61.09;97044.97;5089046;28;20274;-68
2023/06/30 07:50:01;;;;;;;22.27;12.20;;;;;;;23.65;60.83;97052.34;5089303;28;23601;-69
2023/06/30 07:52:27;;;;;;;18.03;12.70;;;;;;;23.53;60.39;97047.03;5090041;28;20197;-69
2023/06/30 07:54:55;;;;;;;18.33;12.63;;;;;;;23.43;60.64;97050.38;5089640;28;20430;-69
2023/06/30 07:57:21;;;;;;;18.20;12.83;;;;;;;23.42;60.90;97050.59;5090095;28;20189;-69
2023/06/30 07:59:46;;;;;;;22.27;13.30;;;;;;;23.40;61.14;97056.19;5091357;28;20424;-68
2023/06/30 08:02:12;;;;;;;22.70;15.00;;;;;;;23.38;61.25;97050.25;5097735;28;20423;-68
2023/06/30 08:04:41;;;;;;;19.60;13.50;;;;;;;23.36;61.50;97055.03;5088966;28;20264;-70
2023/06/30 08:07:06;;;;;;;21.67;14.17;;;;;;;23.33;61.58;97055.50;5090205;28;20182;-70
2023/06/30 08:09:32;;;;;;;22.17;14.10;;;;;;;23.33;61.72;97060.03;5089677;28;20915;-69
2023/06/30 08:11:58;;;;;;;19.50;14.50;;;;;;;23.31;61.95;97062.97;5089163;28;20565;-71
2023/06/30 08:14:23;;;;;;;21.20;13.53;;;;;;;23.32;62.41;97061.88;5090194;28;20444;-69
2023/06/30 08:16:49;;;;;;;22.83;14.07;;;;;;;23.35;62.46;97066.78;5088457;28;20213;-70
2023/06/30 08:19:14;;;;;;;19.17;14.13;;;;;;;23.36;62.47;97068.41;5089081;28;20304;-71
2023/06/30 08:21:40;;;;;;;22.00;14.50;;;;;;;23.35;62.58;97065.97;5090076;28;20224;-69
2023/06/30 08:24:05;;;;;;;21.47;14.57;;;;;;;23.35;62.72;97071.31;5092620;28;20272;-71
2023/06/30 08:26:30;;;;;;;24.00;13.97;;;;;;;23.35;63.12;97065.97;5094346;28;20531;-70
2023/06/30 08:28:56;;;;;;;20.70;13.60;;;;;;;23.34;63.10;97059.78;5091284;28;20232;-68
2023/06/30 08:31:21;;;;;;;21.13;14.30;;;;;;;23.30;63.29;97069.38;5101637;28;20276;-70
2023/06/30 08:33:47;;;;;;;19.93;14.70;;;;;;;23.27;63.29;97073.31;5091829;28;20194;-69
2023/06/30 08:36:12;;;;;;;21.83;15.20;;;;;;;23.23;63.46;97069.50;5094100;28;20220;-70
2023/06/30 08:38:38;;;;;;;21.43;14.50;;;;;;;23.20;63.44;97069.13;5097288;28;20301;-70
2023/06/30 08:41:04;;;;;;;20.50;14.30;;;;;;;23.17;63.55;97070.41;5089978;28;20227;-71
2023/06/30 08:43:29;;;;;;;22.77;14.67;;;;;;;23.13;63.48;97064.72;5094902;28;20201;-67
2023/06/30 08:45:55;;;;;;;27.20;14.70;;;;;;;23.06;63.82;97069.38;5083943;28;20185;-69
2023/06/30 08:48:21;;;;;;;25.50;17.03;;;;;;;22.99;64.04;97074.88;5093931;28;20219;-69
2023/06/30 08:50:47;;;;;;;28.17;18.50;;;;;;;22.94;64.10;97071.25;5097721;28;20189;-70
2023/06/30 08:53:12;;;;;;;31.40;17.67;;;;;;;22.88;64.57;97072.22;5073874;28;20186;-70
2023/06/30 08:55:39;;;;;;;25.00;17.60;;;;;;;22.83;64.75;97073.72;5089313;28;20540;-69
2023/06/30 08:58:05;;;;;;;27.70;20.33;;;;;;;22.81;64.88;97067.78;5088116;28;20224;-70
2023/06/30 09:00:30;;;;;;;23.87;18.40;;;;;;;22.84;65.47;97066.53;5095832;28;20809;-70
2023/06/30 09:02:58;;;;;;;22.73;17.50;;;;;;;22.86;65.44;97064.44;5092902;28;20221;-69
2023/06/30 09:05:27;;;;;;;38.10;30.17;;;;;;;22.90;65.66;97067.44;5089136;28;20186;-69
2023/06/30 09:07:54;;;;;;;31.10;19.93;;;;;;;22.94;65.55;97060.56;5093575;28;20458;-69
2023/06/30 09:10:22;;;;;;;23.03;17.70;;;;;;;22.94;65.63;97055.22;5090901;28;20808;-67
2023/06/30 09:12:50;;;;;;;25.00;18.67;;;;;;;22.91;65.55;97061.06;5069888;28;20427;-69
2023/06/30 09:15:18;;;;;;;22.90;16.10;;;;;;;22.85;65.48;97057.47;5072494;28;20467;-69
2023/06/30 09:17:43;;;;;;;24.17;16.90;;;;;;;22.82;65.82;97056.06;5088175;28;20893;-69
2023/06/30 09:20:10;;;;;;;27.30;21.13;;;;;;;22.83;66.32;97049.69;5088049;28;20424;-69
2023/06/30 09:22:37;;;;;;;40.20;30.17;;;;;;;22.89;66.25;97053.25;5088266;28;20193;-70
2023/06/30 09:25:03;;;;;;;48.27;37.90;;;;;;;22.97;66.70;97046.75;5071513;28;20469;-69
2023/06/30 09:27:33;;;;;;;43.83;33.50;;;;;;;23.01;66.54;97050.56;5088074;28;20462;-68
2023/06/30 09:29:59;;;;;;;37.00;23.53;;;;;;;23.04;66.48;97050.13;5087831;28;20432;-67
2023/06/30 09:32:29;;;;;;;29.20;22.30;;;;;;;23.10;66.38;97054.50;5088775;28;20582;-70
2023/06/30 09:34:54;;;;;;;25.23;19.67;;;;;;;23.16;66.71;97055.41;5088019;28;20195;-68
2023/06/30 09:37:20;;;;;;;29.20;22.53;;;;;;;23.18;66.49;97056.00;5096581;28;20432;-69
2023/06/30 09:39:52;;;;;;;22.10;15.10;;;;;;;23.11;66.23;97052.66;5086606;28;20704;-69
2023/06/30 09:42:18;;;;;;;21.13;15.83;;;;;;;23.11;66.60;97053.44;5097289;28;20229;-69
2023/06/30 09:44:44;;;;;;;24.20;16.60;;;;;;;23.15;66.93;97051.94;5096164;28;20526;-70
2023/06/30 09:47:12;;;;;;;20.63;14.37;;;;;;;23.20;66.51;97050.44;5089204;28;20430;-70
2023/06/30 09:49:37;;;;;;;21.63;15.07;;;;;;;23.29;66.70;97046.34;5088071;28;20205;-71
2023/06/30 09:52:05;;;;;;;22.30;15.33;;;;;;;23.34;66.76;97046.44;5069927;28;20428;-70
2023/06/30 09:54:30;;;;;;;15.90;12.73;;;;;;;23.40;66.76;97053.50;5088318;28;20194;-70
2023/06/30 09:57:00;;;;;;;19.13;13.23;;;;;;;23.42;66.23;97048.75;5086802;28;20512;-69
2023/06/30 09:59:26;;;;;;;15.83;12.40;;;;;;;23.45;66.01;97050.91;5088148;28;20208;-70
2023/06/30 10:01:55;;;;;;;18.27;14.03;;;;;;;23.47;66.39;97042.66;5087625;28;20518;-68
2023/06/30 10:04:20;;;;;;;22.30;12.40;;;;;;;23.44;66.12;97049.28;5088337;28;20460;-70
2023/06/30 10:06:47;;;;;;;16.67;12.67;;;;;;;23.50;65.83;97052.06;5088311;28;20869;-70
2023/06/30 10:09:14;;;;;;;15.73;11.97;;;;;;;23.51;65.88;97061.72;5077798;28;20336;-69
2023/06/30 10:11:41;;;;;;;17.17;13.20;;;;;;;23.54;66.11;97051.34;5072658;28;20813;-69
2023/06/30 10:14:06;;;;;;;22.10;17.40;;;;;;;23.57;66.15;97053.56;5090060;28;20511;-71
2023/06/30 10:16:32;;;;;;;22.67;17.60;;;;;;;23.60;66.20;97061.09;5070682;28;20466;-68
2023/06/30 10:19:01;;;;;;;22.50;19.27;;;;;;;23.61;65.88;97064.56;5069802;28;20288;-69
2023/06/30 10:21:27;;;;;;;29.53;23.50;;;;;;;23.59;65.87;97064.00;5096278;28;20281;-69
2023/06/30 10:23:53;;;;;;;25.47;19.27;;;;;;;23.59;66.17;97064.81;5087406;28;20420;-70
2023/06/30 10:26:19;;;;;;;39.40;32.23;;;;;;;23.62;66.22;97071.56;5070037;28;20469;-69
2023/06/30 10:28:46;;;;;;;27.77;23.33;;;;;;;23.60;65.94;97066.44;5097531;28;20213;-69
2023/06/30 10:31:12;;;;;;;18.73;16.20;;;;;;;23.64;66.09;97069.44;5091309;28;20435;-69
2023/06/30 10:33:38;;;;;;;21.87;18.27;;;;;;;23.67;66.23;97068.16;5073884;28;20431;-70
2023/06/30 10:36:04;;;;;;;19.67;14.90;;;;;;;23.71;66.27;97067.44;5091472;28;20292;-70
2023/06/30 10:38:29;;;;;;;17.03;15.23;;;;;;;23.73;66.20;97068.00;5073255;28;20205;-70
2023/06/30 10:41:16;;;;;;;17.03;13.80;;;;;;;23.73;65.73;97072.56;5092033;28;20431;-68
2023/06/30 10:44:05;;;;;;;18.37;13.73;;;;;;;23.71;65.95;97059.41;5087024;28;20296;-70
2023/06/30 10:46:47;;;;;;;18.57;14.50;;;;;;;23.75;65.52;97068.59;5089694;28;20573;-68
2023/06/30 10:49:29;;;;;;;18.87;13.40;;;;;;;23.76;65.59;97070.19;5098958;28;20949;-69
2023/06/30 10:51:56;;;;;;;16.37;13.90;;;;;;;23.81;65.66;97063.34;5088596;28;20444;-69
2023/06/30 10:54:24;;;;;;;17.00;13.47;;;;;;;23.82;65.42;97064.97;5098704;28;20601;-68
2023/06/30 10:56:51;;;;;;;20.50;15.00;;;;;;;23.84;65.23;97071.69;5090419;28;20559;-68
2023/06/30 10:59:22;;;;;;;21.00;15.00;;;;;;;23.83;64.94;97074.56;5090975;28;20464;-70
2023/06/30 11:02:09;;;;;;;19.83;15.30;;;;;;;23.85;65.34;97081.34;5073126;28;20423;-68
2023/06/30 11:04:36;;;;;;;19.90;14.47;;;;;;;23.87;65.73;97083.75;5085600;28;20518;-69
2023/06/30 11:07:02;;;;;;;21.47;16.07;;;;;;;23.91;65.72;97075.00;5091620;28;20419;-70
2023/06/30 11:09:48;;;;;;;25.37;16.40;;;;;;;23.95;65.57;97063.81;5091342;28;20451;-70
2023/06/30 11:12:18;;;;;;;18.00;14.80;;;;;;;24.05;65.67;97054.13;5089645;28;20451;-71
2023/06/30 11:14:53;;;;;;;24.40;17.70;;;;;;;24.16;65.58;97056.97;5090777;28;20470;-70
2023/06/30 11:17:19;;;;;;;20.57;16.23;;;;;;;24.22;64.97;97053.31;5082520;28;20431;-69
2023/06/30 11:20:06;;;;;;;25.00;19.23;;;;;;;24.29;64.70;97053.13;5090849;28;20440;-69